sensor_id;sensor_type;location;lat;lon;timestamp;temperature;humidity
33093;DHT22;19456;46.104;12.908;2024-03-17T03:54:20;7.90;99.90
33093;DHT22;19456;46.104;12.908;2024-03-17T04:24:55;8.00;99.90
33093;DHT22;19456;46.104;12.908;2024-03-17T04:27:24;8.00;99.90
33093;DHT22;19456;46.104;12.908;2024-03-17T04:29:49;8.10;99.90
33093;DHT22;19456;46.104;12.908;2024-03-17T04:32:15;8.20;99.90
33093;DHT22;19456;46.104;12.908;2024-03-17T04:34:41;8.40;99.90
33093;DHT22;19456;46.104;12.908;2024-03-17T04:37:09;8.30;99.90
33093;DHT22;19456;46.104;12.908;2024-03-17T04:39:36;8.20;99.90
33093;DHT22;19456;46.104;12.908;2024-03-17T04:42:03;8.30;99.90
33093;DHT22;19456;46.104;12.908;2024-03-17T04:44:29;8.30;99.90
33093;DHT22;19456;46.104;12.908;2024-03-17T04:46:54;8.20;99.90
33093;DHT22;19456;46.104;12.908;2024-03-17T04:49:20;8.30;99.90
33093;DHT22;19456;46.104;12.908;2024-03-17T04:51:46;8.30;99.90
33093;DHT22;19456;46.104;12.908;2024-03-17T04:54:11;8.30;99.90
33093;DHT22;19456;46.104;12.908;2024-03-17T04:56:37;8.50;99.90
33093;DHT22;19456;46.104;12.908;2024-03-17T04:59:02;8.50;99.90
33093;DHT22;19456;46.104;12.908;2024-03-17T05:01:28;8.40;99.90
33093;DHT22;19456;46.104;12.908;2024-03-17T05:03:56;8.30;99.90
33093;DHT22;19456;46.104;12.908;2024-03-17T05:06:21;8.30;99.90
33093;DHT22;19456;46.104;12.908;2024-03-17T05:08:47;8.10;99.90
33093;DHT22;19456;46.104;12.908;2024-03-17T05:11:13;8.10;99.90
33093;DHT22;19456;46.104;12.908;2024-03-17T05:13:41;8.00;99.90
33093;DHT22;19456;46.104;12.908;2024-03-17T05:16:06;7.90;99.90
33093;DHT22;19456;46.104;12.908;2024-03-17T09:22:22;15.70;99.90
33093;DHT22;19456;46.104;12.908;2024-03-17T09:24:47;15.70;99.90
33093;DHT22;19456;46.104;12.908;2024-03-17T09:27:13;15.80;99.90
33093;DHT22;19456;46.104;12.908;2024-03-17T09:29:45;15.90;99.90
33093;DHT22;19456;46.104;12.908;2024-03-17T09:32:11;16.00;99.90
33093;DHT22;19456;46.104;12.908;2024-03-17T09:34:46;16.10;99.90
33093;DHT22;19456;46.104;12.908;2024-03-17T09:37:13;16.20;99.90
33093;DHT22;19456;46.104;12.908;2024-03-17T09:39:39;16.20;99.90
33093;DHT22;19456;46.104;12.908;2024-03-17T09:42:04;16.30;99.90
33093;DHT22;19456;46.104;12.908;2024-03-17T09:44:34;16.40;99.90
33093;DHT22;19456;46.104;12.908;2024-03-17T09:47:01;16.50;99.90
33093;DHT22;19456;46.104;12.908;2024-03-17T09:49:27;16.40;99.90
33093;DHT22;19456;46.104;12.908;2024-03-17T09:51:53;16.30;99.90
33093;DHT22;19456;46.104;12.908;2024-03-17T09:54:21;16.30;99.90
33093;DHT22;19456;46.104;12.908;2024-03-17T09:56:47;16.10;99.90
33093;DHT22;19456;46.104;12.908;2024-03-17T09:59:13;16.20;99.90
33093;DHT22;19456;46.104;12.908;2024-03-17T10:01:38;16.30;99.90
33093;DHT22;19456;46.104;12.908;2024-03-17T10:04:04;16.20;99.90
33093;DHT22;19456;46.104;12.908;2024-03-17T10:06:30;16.40;99.90
33093;DHT22;19456;46.104;12.908;2024-03-17T10:08:56;16.50;99.90
33093;DHT22;19456;46.104;12.908;2024-03-17T10:11:35;16.60;99.90
33093;DHT22;19456;46.104;12.908;2024-03-17T10:14:05;16.70;99.90
33093;DHT22;19456;46.104;12.908;2024-03-17T10:16:31;16.70;99.90
33093;DHT22;19456;46.104;12.908;2024-03-17T10:19:13;16.80;99.90
33093;DHT22;19456;46.104;12.908;2024-03-17T10:21:39;16.80;99.90
33093;DHT22;19456;46.104;12.908;2024-03-17T10:24:06;16.70;99.90
33093;DHT22;19456;46.104;12.908;2024-03-17T10:29:05;16.90;99.90
33093;DHT22;19456;46.104;12.908;2024-03-17T10:31:30;16.90;99.90
33093;DHT22;19456;46.104;12.908;2024-03-17T10:34:02;17.20;99.90
33093;DHT22;19456;46.104;12.908;2024-03-17T10:36:28;17.30;99.90
33093;DHT22;19456;46.104;12.908;2024-03-17T10:38:53;17.20;99.90
33093;DHT22;19456;46.104;12.908;2024-03-17T10:41:20;17.40;99.90
33093;DHT22;19456;46.104;12.908;2024-03-17T10:43:47;17.50;99.90
33093;DHT22;19456;46.104;12.908;2024-03-17T10:46:13;17.60;99.90
33093;DHT22;19456;46.104;12.908;2024-03-17T10:48:40;17.70;99.90
33093;DHT22;19456;46.104;12.908;2024-03-17T10:51:07;17.70;99.90
33093;DHT22;19456;46.104;12.908;2024-03-17T10:53:34;17.80;99.90
33093;DHT22;19456;46.104;12.908;2024-03-17T10:56:06;17.90;99.90
33093;DHT22;19456;46.104;12.908;2024-03-17T10:58:38;18.10;99.90
33093;DHT22;19456;46.104;12.908;2024-03-17T11:01:06;18.10;99.90
33093;DHT22;19456;46.104;12.908;2024-03-17T11:03:33;18.00;99.90
33093;DHT22;19456;46.104;12.908;2024-03-17T11:05:59;18.30;99.90
33093;DHT22;19456;46.104;12.908;2024-03-17T11:08:26;18.60;99.90
33093;DHT22;19456;46.104;12.908;2024-03-17T11:10:52;18.80;99.90
33093;DHT22;19456;46.104;12.908;2024-03-17T11:13:31;18.90;99.90
33093;DHT22;19456;46.104;12.908;2024-03-17T11:15:57;18.50;99.90
33093;DHT22;19456;46.104;12.908;2024-03-17T11:20:59;18.80;99.90
33093;DHT22;19456;46.104;12.908;2024-03-17T11:23:30;18.90;99.90
33093;DHT22;19456;46.104;12.908;2024-03-17T11:25:56;19.30;99.90
33093;DHT22;19456;46.104;12.908;2024-03-17T11:31:31;19.00;99.90
33093;DHT22;19456;46.104;12.908;2024-03-17T11:33:52;19.30;99.90
33093;DHT22;19456;46.104;12.908;2024-03-17T11:38:56;20.10;99.90
33093;DHT22;19456;46.104;12.908;2024-03-17T11:44:13;20.20;99.90
33093;DHT22;19456;46.104;12.908;2024-03-17T11:46:39;20.00;99.90
33093;DHT22;19456;46.104;12.908;2024-03-17T11:49:04;20.10;99.90
33093;DHT22;19456;46.104;12.908;2024-03-17T11:51:30;20.30;99.90
33093;DHT22;19456;46.104;12.908;2024-03-17T11:53:58;20.30;99.90
33093;DHT22;19456;46.104;12.908;2024-03-17T11:56:24;20.50;99.90
33093;DHT22;19456;46.104;12.908;2024-03-17T11:59:11;20.90;99.90
33093;DHT22;19456;46.104;12.908;2024-03-17T12:01:36;21.20;99.90
33093;DHT22;19456;46.104;12.908;2024-03-17T12:04:01;21.70;99.90
33093;DHT22;19456;46.104;12.908;2024-03-17T12:06:31;21.90;99.90
33093;DHT22;19456;46.104;12.908;2024-03-17T12:11:41;21.20;99.90
33093;DHT22;19456;46.104;12.908;2024-03-17T12:14:17;21.00;99.90
33093;DHT22;19456;46.104;12.908;2024-03-17T12:16:48;20.70;99.90
33093;DHT22;19456;46.104;12.908;2024-03-17T12:19:14;21.10;99.90
33093;DHT22;19456;46.104;12.908;2024-03-17T12:21:43;20.80;99.90
33093;DHT22;19456;46.104;12.908;2024-03-17T12:24:12;20.60;99.90
33093;DHT22;19456;46.104;12.908;2024-03-17T12:26:39;20.50;99.90
33093;DHT22;19456;46.104;12.908;2024-03-17T12:29:04;20.90;99.90
33093;DHT22;19456;46.104;12.908;2024-03-17T12:31:30;21.50;99.90
33093;DHT22;19456;46.104;12.908;2024-03-17T12:33:55;21.50;99.90
33093;DHT22;19456;46.104;12.908;2024-03-17T12:36:21;21.40;99.90
33093;DHT22;19456;46.104;12.908;2024-03-17T12:38:46;21.30;99.90
33093;DHT22;19456;46.104;12.908;2024-03-17T12:41:18;21.30;99.90
33093;DHT22;19456;46.104;12.908;2024-03-17T12:43:50;21.70;99.90
33093;DHT22;19456;46.104;12.908;2024-03-17T12:46:17;21.60;99.90
33093;DHT22;19456;46.104;12.908;2024-03-17T12:48:43;22.10;99.90
33093;DHT22;19456;46.104;12.908;2024-03-17T12:51:15;22.00;99.90
33093;DHT22;19456;46.104;12.908;2024-03-17T12:53:40;22.30;99.90
33093;DHT22;19456;46.104;12.908;2024-03-17T12:56:06;23.00;99.90
33093;DHT22;19456;46.104;12.908;2024-03-17T12:58:50;22.80;99.90
33093;DHT22;19456;46.104;12.908;2024-03-17T13:01:34;22.70;99.90
33093;DHT22;19456;46.104;12.908;2024-03-17T13:04:06;22.40;99.90
33093;DHT22;19456;46.104;12.908;2024-03-17T13:06:33;22.00;99.90
33093;DHT22;19456;46.104;12.908;2024-03-17T13:08:59;21.60;99.90
33093;DHT22;19456;46.104;12.908;2024-03-17T13:11:24;21.40;99.90
33093;DHT22;19456;46.104;12.908;2024-03-17T13:13:50;21.70;99.90
33093;DHT22;19456;46.104;12.908;2024-03-17T13:16:15;21.70;99.90
33093;DHT22;19456;46.104;12.908;2024-03-17T13:18:41;21.50;99.90
33093;DHT22;19456;46.104;12.908;2024-03-17T13:21:07;21.40;99.90
33093;DHT22;19456;46.104;12.908;2024-03-17T13:23:33;22.10;99.90
33093;DHT22;19456;46.104;12.908;2024-03-17T13:25:58;22.00;99.90
33093;DHT22;19456;46.104;12.908;2024-03-17T13:28:24;21.60;99.90
33093;DHT22;19456;46.104;12.908;2024-03-17T13:30:49;21.90;99.90
33093;DHT22;19456;46.104;12.908;2024-03-17T13:33:15;21.60;99.90
33093;DHT22;19456;46.104;12.908;2024-03-17T13:35:41;21.60;99.90
33093;DHT22;19456;46.104;12.908;2024-03-17T13:38:08;21.40;99.90
33093;DHT22;19456;46.104;12.908;2024-03-17T13:40:34;21.70;99.90
33093;DHT22;19456;46.104;12.908;2024-03-17T13:43:00;21.80;99.90
33093;DHT22;19456;46.104;12.908;2024-03-17T13:45:27;22.40;99.90
33093;DHT22;19456;46.104;12.908;2024-03-17T13:47:57;22.50;99.90
33093;DHT22;19456;46.104;12.908;2024-03-17T13:50:23;22.70;99.90
33093;DHT22;19456;46.104;12.908;2024-03-17T13:52:48;22.50;99.90
33093;DHT22;19456;46.104;12.908;2024-03-17T13:55:15;22.50;99.90
33093;DHT22;19456;46.104;12.908;2024-03-17T13:57:42;22.50;99.90
33093;DHT22;19456;46.104;12.908;2024-03-17T14:00:08;22.50;99.90
33093;DHT22;19456;46.104;12.908;2024-03-17T14:02:34;21.80;99.90
33093;DHT22;19456;46.104;12.908;2024-03-17T14:05:00;21.60;99.90
33093;DHT22;19456;46.104;12.908;2024-03-17T14:07:27;21.20;99.90
33093;DHT22;19456;46.104;12.908;2024-03-17T14:09:52;21.50;99.90
33093;DHT22;19456;46.104;12.908;2024-03-17T14:12:18;21.40;99.90
33093;DHT22;19456;46.104;12.908;2024-03-17T14:14:44;21.40;99.90
33093;DHT22;19456;46.104;12.908;2024-03-17T14:17:09;21.70;99.90
33093;DHT22;19456;46.104;12.908;2024-03-17T14:19:35;22.00;99.90
33093;DHT22;19456;46.104;12.908;2024-03-17T14:22:01;22.20;99.90
33093;DHT22;19456;46.104;12.908;2024-03-17T14:24:27;22.10;99.90
33093;DHT22;19456;46.104;12.908;2024-03-17T14:26:54;21.90;99.90
33093;DHT22;19456;46.104;12.908;2024-03-17T14:29:20;21.70;99.90
33093;DHT22;19456;46.104;12.908;2024-03-17T14:31:46;21.90;99.90
33093;DHT22;19456;46.104;12.908;2024-03-17T14:34:11;21.70;99.90
33093;DHT22;19456;46.104;12.908;2024-03-17T14:36:37;21.30;99.90
33093;DHT22;19456;46.104;12.908;2024-03-17T14:39:03;21.20;99.90
33093;DHT22;19456;46.104;12.908;2024-03-17T14:41:31;21.10;99.90
33093;DHT22;19456;46.104;12.908;2024-03-17T14:43:57;21.10;99.90
33093;DHT22;19456;46.104;12.908;2024-03-17T14:46:23;21.00;99.90
33093;DHT22;19456;46.104;12.908;2024-03-17T14:48:49;20.90;99.90
33093;DHT22;19456;46.104;12.908;2024-03-17T14:51:19;21.00;99.90
33093;DHT22;19456;46.104;12.908;2024-03-17T14:53:48;20.90;99.90
33093;DHT22;19456;46.104;12.908;2024-03-17T14:56:19;20.80;99.90
33093;DHT22;19456;46.104;12.908;2024-03-17T14:58:45;20.80;99.90
33093;DHT22;19456;46.104;12.908;2024-03-17T15:01:16;20.70;99.90
33093;DHT22;19456;46.104;12.908;2024-03-17T15:03:41;20.30;99.90
33093;DHT22;19456;46.104;12.908;2024-03-17T15:06:14;20.20;99.90
33093;DHT22;19456;46.104;12.908;2024-03-17T15:08:43;19.80;99.90
33093;DHT22;19456;46.104;12.908;2024-03-17T15:11:09;19.30;99.90
33093;DHT22;19456;46.104;12.908;2024-03-17T15:13:35;19.10;99.90
33093;DHT22;19456;46.104;12.908;2024-03-17T15:16:02;18.90;99.90
33093;DHT22;19456;46.104;12.908;2024-03-17T15:18:30;18.80;99.90
33093;DHT22;19456;46.104;12.908;2024-03-17T15:20:56;18.70;99.90
33093;DHT22;19456;46.104;12.908;2024-03-17T15:23:21;18.70;99.90
33093;DHT22;19456;46.104;12.908;2024-03-17T15:25:47;18.50;99.90
33093;DHT22;19456;46.104;12.908;2024-03-17T15:28:12;18.40;99.90
33093;DHT22;19456;46.104;12.908;2024-03-17T15:30:38;18.40;99.90
33093;DHT22;19456;46.104;12.908;2024-03-17T15:33:04;18.30;99.90
33093;DHT22;19456;46.104;12.908;2024-03-17T15:35:29;18.30;99.90
33093;DHT22;19456;46.104;12.908;2024-03-17T15:37:56;18.20;99.90
33093;DHT22;19456;46.104;12.908;2024-03-17T15:40:22;18.20;99.90
33093;DHT22;19456;46.104;12.908;2024-03-17T15:42:48;18.20;99.90
33093;DHT22;19456;46.104;12.908;2024-03-17T15:45:14;18.30;99.90
33093;DHT22;19456;46.104;12.908;2024-03-17T15:47:40;18.10;99.90
33093;DHT22;19456;46.104;12.908;2024-03-17T15:50:06;18.00;99.90
33093;DHT22;19456;46.104;12.908;2024-03-17T15:52:32;17.90;99.90
33093;DHT22;19456;46.104;12.908;2024-03-17T15:55:01;17.80;99.90
33093;DHT22;19456;46.104;12.908;2024-03-17T15:57:28;17.70;99.90
33093;DHT22;19456;46.104;12.908;2024-03-17T15:59:54;17.70;99.90
33093;DHT22;19456;46.104;12.908;2024-03-17T16:02:20;17.60;99.90
33093;DHT22;19456;46.104;12.908;2024-03-17T16:04:49;17.60;99.90
33093;DHT22;19456;46.104;12.908;2024-03-17T16:07:17;17.50;99.90
33093;DHT22;19456;46.104;12.908;2024-03-17T16:09:42;17.50;99.90
33093;DHT22;19456;46.104;12.908;2024-03-17T16:12:08;17.50;99.90
33093;DHT22;19456;46.104;12.908;2024-03-17T16:14:35;17.50;99.90
33093;DHT22;19456;46.104;12.908;2024-03-17T16:17:03;17.40;99.90
33093;DHT22;19456;46.104;12.908;2024-03-17T16:19:33;17.40;99.90
33093;DHT22;19456;46.104;12.908;2024-03-17T16:21:59;17.30;99.90
33093;DHT22;19456;46.104;12.908;2024-03-17T16:24:24;17.30;99.90
33093;DHT22;19456;46.104;12.908;2024-03-17T16:26:51;17.30;99.90
33093;DHT22;19456;46.104;12.908;2024-03-17T16:29:19;17.30;99.90
33093;DHT22;19456;46.104;12.908;2024-03-17T16:31:45;17.30;99.90
33093;DHT22;19456;46.104;12.908;2024-03-17T16:34:10;17.30;99.90
33093;DHT22;19456;46.104;12.908;2024-03-17T16:36:37;17.20;99.90
33093;DHT22;19456;46.104;12.908;2024-03-17T16:39:09;17.20;99.90
33093;DHT22;19456;46.104;12.908;2024-03-17T16:41:38;17.10;99.90
33093;DHT22;19456;46.104;12.908;2024-03-17T16:44:12;17.10;99.90
33093;DHT22;19456;46.104;12.908;2024-03-17T16:49:15;17.00;99.90
33093;DHT22;19456;46.104;12.908;2024-03-17T16:51:41;16.90;99.90
33093;DHT22;19456;46.104;12.908;2024-03-17T16:54:08;16.90;99.90
33093;DHT22;19456;46.104;12.908;2024-03-17T16:56:33;16.90;99.90
33093;DHT22;19456;46.104;12.908;2024-03-17T16:58:59;16.80;99.90
33093;DHT22;19456;46.104;12.908;2024-03-17T17:01:24;16.80;99.90
33093;DHT22;19456;46.104;12.908;2024-03-17T17:03:50;16.80;99.90
33093;DHT22;19456;46.104;12.908;2024-03-17T17:06:16;16.70;99.90
33093;DHT22;19456;46.104;12.908;2024-03-17T17:08:41;16.60;99.90
33093;DHT22;19456;46.104;12.908;2024-03-17T17:11:13;16.50;99.90
33093;DHT22;19456;46.104;12.908;2024-03-17T17:13:39;16.50;99.90
33093;DHT22;19456;46.104;12.908;2024-03-17T17:16:05;16.40;99.90
33093;DHT22;19456;46.104;12.908;2024-03-17T17:21:17;16.30;99.90
33093;DHT22;19456;46.104;12.908;2024-03-17T17:23:42;16.20;99.90
33093;DHT22;19456;46.104;12.908;2024-03-17T17:26:08;16.10;99.90
33093;DHT22;19456;46.104;12.908;2024-03-17T17:28:33;16.10;99.90
33093;DHT22;19456;46.104;12.908;2024-03-17T17:30:59;16.00;99.90
33093;DHT22;19456;46.104;12.908;2024-03-17T17:33:25;16.00;99.90
33093;DHT22;19456;46.104;12.908;2024-03-17T17:35:51;15.90;99.90
33093;DHT22;19456;46.104;12.908;2024-03-17T17:38:17;15.80;99.90
33093;DHT22;19456;46.104;12.908;2024-03-17T17:40:43;15.80;99.90
33093;DHT22;19456;46.104;12.908;2024-03-17T17:43:08;15.80;99.90
33093;DHT22;19456;46.104;12.908;2024-03-17T17:45:34;15.80;99.90
33093;DHT22;19456;46.104;12.908;2024-03-17T17:48:00;15.80;99.90
33093;DHT22;19456;46.104;12.908;2024-03-17T17:50:26;15.80;99.90
33093;DHT22;19456;46.104;12.908;2024-03-17T17:52:52;15.70;99.90
33093;DHT22;19456;46.104;12.908;2024-03-17T17:55:18;15.70;99.90
33093;DHT22;19456;46.104;12.908;2024-03-17T17:57:44;15.70;99.90
33093;DHT22;19456;46.104;12.908;2024-03-17T18:00:11;15.70;99.90
33093;DHT22;19456;46.104;12.908;2024-03-17T18:02:38;15.60;99.90
33093;DHT22;19456;46.104;12.908;2024-03-17T18:05:04;15.60;99.90
33093;DHT22;19456;46.104;12.908;2024-03-17T18:07:31;15.50;99.90
33093;DHT22;19456;46.104;12.908;2024-03-17T18:09:57;15.40;99.90
33093;DHT22;19456;46.104;12.908;2024-03-17T18:12:23;15.40;99.90
33093;DHT22;19456;46.104;12.908;2024-03-17T18:14:50;15.40;99.90
33093;DHT22;19456;46.104;12.908;2024-03-17T18:17:15;15.30;99.90
33093;DHT22;19456;46.104;12.908;2024-03-17T18:19:44;15.30;99.90
33093;DHT22;19456;46.104;12.908;2024-03-17T18:22:10;15.20;99.90
33093;DHT22;19456;46.104;12.908;2024-03-17T18:24:36;15.20;99.90
33093;DHT22;19456;46.104;12.908;2024-03-17T18:27:01;15.20;99.90
33093;DHT22;19456;46.104;12.908;2024-03-17T18:29:27;15.10;99.90
33093;DHT22;19456;46.104;12.908;2024-03-17T18:31:53;15.10;99.90
33093;DHT22;19456;46.104;12.908;2024-03-17T18:34:18;15.10;99.90
33093;DHT22;19456;46.104;12.908;2024-03-17T18:36:44;15.00;99.90
33093;DHT22;19456;46.104;12.908;2024-03-17T18:39:09;14.90;99.90
33093;DHT22;19456;46.104;12.908;2024-03-17T18:41:35;14.90;99.90
